Happy Valley, Tennessee
Current Conditions -  °F | °C
As of 6:53 AM on Tuesday 21 Oct 2014 (Local Time) from KTYS Reporting Station
Few Clouds Few Clouds  
Wind Chill: 51°   Ceiling: Unl
Heat Index: 51°   Visibility: 10mi
Dew Point: 47°   Wind: 3mph
Humidity: 86%   Direction: 230°SW
Pressure: 29.99"   Gusts: NA
Location:  35.5537°N, 83.9603°W
Report Text: KTYS 211053Z 23003KT 10SM FEW080 11/08 A2999 RMK AO2 SLP151 T01060083
Loading
Personal Weather Stations






























Interactive Weather Map
Tropical Storm Tracking
New forecast layout! Learn more

10-Day Weather Forecast

Advertisements
Track Severe Weather on mobile